Time;durP1;ratioP1;P1;durP2;ratioP2;P2;SDS_P1;SDS_P2;PMS_P1;PMS_P2;Temp;Humidity;BMP_temperature;BMP_pressure;BME280_temperature;BME280_humidity;BME280_pressure;Samples;Min_cycle;Max_cycle;Signal;HPM_P1;HPM_P2
2022/03/20 00:01:34;;;;;;;7.87;4.03;;;;;;;-0.78;45.32;147480.75;1780661;79;21025;-58
2022/03/20 00:04:01;;;;;;;10.23;4.50;;;;;;;-0.81;45.61;147471.73;1785007;79;21002;-58
2022/03/20 00:06:29;;;;;;;8.73;4.10;;;;;;;-0.82;45.36;147469.16;1786862;78;21002;-64
2022/03/20 00:08:58;;;;;;;11.05;4.00;;;;;;;-0.82;45.29;147469.16;1788154;79;21594;-64
2022/03/20 00:11:28;;;;;;;8.30;4.03;;;;;;;-0.83;45.62;147467.91;1782173;79;22720;-58
2022/03/20 00:13:55;;;;;;;9.58;3.72;;;;;;;-0.85;45.36;147462.77;1786248;79;21019;-58
2022/03/20 00:16:23;;;;;;;7.37;3.77;;;;;;;-0.86;45.39;147460.19;1791027;78;21088;-65
2022/03/20 00:18:51;;;;;;;9.55;4.37;;;;;;;-0.85;45.42;147461.45;1785111;79;21415;-64
2022/03/20 00:21:18;;;;;;;8.10;4.40;;;;;;;-0.85;45.58;147461.45;1790229;79;21098;-63
2022/03/20 00:23:46;;;;;;;10.80;5.10;;;;;;;-0.87;45.52;147457.63;1790152;79;21034;-63
2022/03/20 00:26:16;;;;;;;8.80;4.10;;;;;;;-0.90;45.27;147451.17;1782218;79;21597;-64
2022/03/20 00:28:44;;;;;;;10.60;4.60;;;;;;;-0.92;45.16;147446.03;1746044;80;20939;-63
2022/03/20 00:31:12;;;;;;;14.33;4.92;;;;;;;-0.95;45.04;147438.33;1783406;79;21054;-64
2022/03/20 00:33:39;;;;;;;12.07;5.10;;;;;;;-1.03;45.57;147417.72;1788005;79;21093;-64
2022/03/20 00:36:07;;;;;;;12.65;4.95;;;;;;;-1.24;45.98;147366.28;1794011;79;21064;-64
2022/03/20 00:38:34;;;;;;;14.60;5.05;;;;;;;-1.51;46.95;147299.45;1790328;79;20959;-63
2022/03/20 00:41:03;;;;;;;13.80;4.97;;;;;;;-1.74;47.37;147242.91;1787428;79;21408;-63
2022/03/20 00:43:31;;;;;;;9.63;4.42;;;;;;;-1.92;48.27;147196.64;1784673;79;21019;-64
2022/03/20 00:45:58;;;;;;;10.98;5.00;;;;;;;-2.05;48.88;147165.83;1780081;79;21117;-63
2022/03/20 00:48:26;;;;;;;12.98;4.70;;;;;;;-2.15;49.17;147140.11;1788971;79;21012;-64
2022/03/20 00:50:53;;;;;;;13.85;5.08;;;;;;;-2.22;49.35;147122.14;1773412;78;21073;-64
2022/03/20 00:53:20;;;;;;;17.00;5.45;;;;;;;-2.28;49.39;147106.75;1776225;80;20992;-57
2022/03/20 00:55:49;;;;;;;13.05;4.75;;;;;;;-2.33;49.57;147095.16;1774735;80;21050;-57
2022/03/20 00:58:18;;;;;;;13.88;4.80;;;;;;;-2.38;49.63;147083.59;1777825;80;21070;-57
2022/03/20 01:00:46;;;;;;;13.28;4.87;;;;;;;-2.41;49.82;147074.63;1767085;79;21226;-58
2022/03/20 01:03:13;;;;;;;13.95;5.78;;;;;;;-2.49;50.10;147055.36;1773576;80;21047;-58
2022/03/20 01:05:41;;;;;;;14.15;4.72;;;;;;;-2.54;50.09;147042.47;1774579;79;20999;-58
2022/03/20 01:08:12;;;;;;;12.25;4.80;;;;;;;-2.56;50.13;147037.34;1775878;80;21122;-59
2022/03/20 01:10:40;;;;;;;9.48;4.17;;;;;;;-2.59;50.04;147032.22;1781658;79;20920;-59
2022/03/20 01:13:07;;;;;;;12.30;4.53;;;;;;;-2.59;50.02;147032.22;1779497;79;21221;-59
2022/03/20 01:15:34;;;;;;;11.95;4.78;;;;;;;-2.57;49.95;147034.78;1771755;80;21525;-59
2022/03/20 01:18:03;;;;;;;10.38;4.08;;;;;;;-2.56;49.79;147037.34;1778026;79;21750;-58
2022/03/20 01:20:34;;;;;;;11.18;4.83;;;;;;;-2.55;49.72;147039.91;1773339;80;21500;-58
2022/03/20 01:23:02;;;;;;;10.48;4.40;;;;;;;-2.53;49.65;147045.09;1776958;80;20962;-57
2022/03/20 01:25:30;;;;;;;10.68;4.30;;;;;;;-2.53;49.65;147045.09;1769920;80;22154;-58
2022/03/20 01:27:59;;;;;;;11.73;4.58;;;;;;;-2.52;49.72;147047.66;1776123;80;22286;-58
2022/03/20 01:30:26;;;;;;;10.60;4.08;;;;;;;-2.53;49.92;147045.09;1774980;80;20998;-58
2022/03/20 01:32:53;;;;;;;14.65;5.25;;;;;;;-2.55;50.11;147041.22;1779525;80;21495;-58
2022/03/20 01:35:21;;;;;;;10.13;4.17;;;;;;;-2.56;50.30;147037.34;1778749;80;21046;-59
2022/03/20 01:37:48;;;;;;;10.25;4.37;;;;;;;-2.59;50.27;147032.22;1776120;80;20982;-58
2022/03/20 01:40:15;;;;;;;9.53;4.47;;;;;;;-2.62;50.33;147024.52;1775570;80;20999;-58
2022/03/20 01:42:43;;;;;;;11.10;4.08;;;;;;;-2.62;50.35;147024.52;1777262;80;21047;-57
2022/03/20 01:45:19;;;;;;;9.90;4.40;;;;;;;-2.63;50.45;147021.95;1778333;79;21090;-58
2022/03/20 01:47:47;;;;;;;11.38;4.67;;;;;;;-2.64;50.61;147019.38;1776879;80;21217;-63
2022/03/20 01:50:17;;;;;;;8.53;3.92;;;;;;;-2.64;50.62;147018.13;1778324;79;21570;-59
2022/03/20 01:52:45;;;;;;;14.35;5.55;;;;;;;-2.67;50.71;147011.69;1789776;79;21472;-58
2022/03/20 01:55:13;;;;;;;10.00;4.55;;;;;;;-2.67;50.76;147010.37;1789258;79;21082;-57
2022/03/20 01:57:40;;;;;;;8.03;3.92;;;;;;;-2.68;50.81;147007.81;1787431;78;21075;-58
2022/03/20 02:00:10;;;;;;;8.18;4.60;;;;;;;-2.70;51.08;147002.69;1785545;79;21074;-57
2022/03/20 02:02:40;;;;;;;8.55;4.55;;;;;;;-2.72;51.06;146997.55;1784387;79;21298;-58
2022/03/20 02:05:09;;;;;;;7.65;3.75;;;;;;;-2.74;51.07;146993.72;1785410;79;21065;-58
2022/03/20 02:07:38;;;;;;;8.53;4.17;;;;;;;-2.74;51.34;146993.72;1794753;79;21432;-58
2022/03/20 02:10:07;;;;;;;9.15;4.28;;;;;;;-2.75;51.43;146992.42;1790574;79;21041;-58
2022/03/20 02:12:36;;;;;;;8.30;3.72;;;;;;;-2.75;51.57;146991.16;1793360;79;20999;-58
2022/03/20 02:15:05;;;;;;;9.23;4.00;;;;;;;-2.73;51.68;146996.30;1789729;79;21509;-58
2022/03/20 02:17:32;;;;;;;7.42;3.72;;;;;;;-2.74;51.72;146993.72;1786280;79;21039;-58
2022/03/20 02:20:03;;;;;;;10.58;4.58;;;;;;;-2.72;51.74;146997.55;1787702;79;21063;-65
2022/03/20 02:22:33;;;;;;;8.48;4.10;;;;;;;-2.71;51.85;147001.42;1786268;79;21032;-64
2022/03/20 02:25:06;;;;;;;16.55;5.35;;;;;;;-2.70;51.79;147002.69;1789374;79;21031;-64
2022/03/20 02:27:34;;;;;;;8.30;3.87;;;;;;;-2.70;51.80;147003.98;1784046;79;21194;-64
2022/03/20 02:30:06;;;;;;;11.95;4.08;;;;;;;-2.69;51.74;147005.25;1789178;79;21086;-64
2022/03/20 02:32:34;;;;;;;11.08;4.70;;;;;;;-2.69;51.58;147005.25;1786742;79;21030;-64
2022/03/20 02:35:04;;;;;;;9.55;4.17;;;;;;;-2.68;51.45;147009.12;1752313;79;21128;-64
2022/03/20 02:37:35;;;;;;;10.82;4.03;;;;;;;-2.68;51.35;147009.12;1748177;80;20925;-59
2022/03/20 02:40:08;;;;;;;8.30;3.80;;;;;;;-2.68;51.27;147009.12;1784575;79;21274;-58
2022/03/20 02:42:35;;;;;;;14.28;4.30;;;;;;;-2.68;51.36;147009.12;1787007;79;20973;-65
2022/03/20 02:45:14;;;;;;;7.97;3.70;;;;;;;-2.68;51.52;147007.81;1788360;79;21058;-59
2022/03/20 02:47:44;;;;;;;10.70;4.12;;;;;;;-2.67;52.00;147011.69;1795782;78;20991;-58
2022/03/20 02:50:30;;;;;;;11.93;4.30;;;;;;;-2.66;52.09;147012.95;1782784;79;21002;-63
2022/03/20 02:53:03;;;;;;;8.30;4.03;;;;;;;-2.65;52.41;147016.81;1775272;80;21148;-64
2022/03/20 02:55:35;;;;;;;8.73;4.10;;;;;;;-2.64;52.42;147019.38;1776382;80;20984;-65
2022/03/20 02:58:05;;;;;;;7.55;4.15;;;;;;;-2.64;52.71;147019.38;1784384;79;20940;-57
2022/03/20 03:00:33;;;;;;;11.85;4.65;;;;;;;-2.62;52.75;147024.52;1779047;79;21047;-65
2022/03/20 03:03:02;;;;;;;12.65;4.60;;;;;;;-2.62;52.96;147024.52;1774695;80;21046;-65
2022/03/20 03:05:31;;;;;;;7.95;4.08;;;;;;;-2.63;52.79;147021.95;1781117;80;21239;-64
2022/03/20 03:10:57;;;;;;;9.13;4.25;;;;;;;-2.63;52.89;147020.69;1776931;79;20995;-65
2022/03/20 03:13:40;;;;;;;10.40;4.30;;;;;;;-2.62;52.96;147024.52;1774138;80;21503;-59
2022/03/20 03:16:12;;;;;;;8.20;4.22;;;;;;;-2.62;53.01;147024.52;1781186;80;21527;-57
2022/03/20 03:18:47;;;;;;;11.63;4.45;;;;;;;-2.62;53.09;147024.52;1777423;79;20970;-64
2022/03/20 03:21:17;;;;;;;9.48;4.28;;;;;;;-2.63;53.13;147020.69;1778781;79;21054;-65
2022/03/20 03:23:44;;;;;;;10.63;4.45;;;;;;;-2.64;53.25;147019.38;1777575;80;21046;-65
2022/03/20 03:26:12;;;;;;;12.20;4.58;;;;;;;-2.63;53.27;147020.69;1777028;80;22211;-57
2022/03/20 03:28:40;;;;;;;12.07;4.53;;;;;;;-2.64;53.37;147019.38;1781903;80;20944;-57
2022/03/20 03:31:11;;;;;;;11.12;4.25;;;;;;;-2.63;53.52;147021.95;1777797;79;21230;-59
2022/03/20 03:35:41;;;;;;;9.25;3.85;;;;;;;-2.63;53.65;147021.95;1779915;80;21082;-58
2022/03/20 03:36:10;;;;;;;9.48;4.00;;;;;;;-2.62;53.82;147024.52;1775265;80;21059;-65
2022/03/20 03:38:37;;;;;;;8.68;4.12;;;;;;;-2.63;53.93;147021.95;1775912;79;21459;-64
2022/03/20 03:41:05;;;;;;;11.05;4.50;;;;;;;-2.64;54.00;147019.38;1777189;80;21516;-65
2022/03/20 03:43:32;;;;;;;10.58;4.10;;;;;;;-2.64;54.07;147018.13;1777598;80;21212;-64
2022/03/20 03:46:01;;;;;;;9.53;4.17;;;;;;;-2.66;53.91;147014.25;1777314;80;20974;-65
2022/03/20 03:48:29;;;;;;;9.73;3.85;;;;;;;-2.65;54.05;147016.81;1779723;80;21004;-65
2022/03/20 03:50:57;;;;;;;11.75;3.90;;;;;;;-2.64;54.00;147018.13;1770624;79;21486;-64
2022/03/20 03:53:24;;;;;;;9.70;4.15;;;;;;;-2.63;53.88;147020.69;1782231;79;21039;-58
2022/03/20 03:55:54;;;;;;;9.28;3.70;;;;;;;-2.62;53.84;147024.52;1777617;80;21127;-58
2022/03/20 03:58:21;;;;;;;10.10;4.42;;;;;;;-2.60;53.84;147029.66;1778854;80;21086;-57
2022/03/20 04:00:48;;;;;;;9.93;4.58;;;;;;;-2.58;53.83;147033.53;1782323;79;20967;-64
2022/03/20 04:03:16;;;;;;;11.70;4.03;;;;;;;-2.56;53.98;147037.34;1778702;79;22178;-64
2022/03/20 04:05:43;;;;;;;9.63;4.42;;;;;;;-2.56;54.20;147037.34;1776306;80;21072;-64
2022/03/20 04:08:10;;;;;;;8.13;3.90;;;;;;;-2.57;54.09;147036.09;1776819;80;22011;-64
2022/03/20 04:10:37;;;;;;;9.40;4.90;;;;;;;-2.57;54.40;147036.09;1778616;80;21031;-64
2022/03/20 04:13:09;;;;;;;8.43;4.40;;;;;;;-2.57;54.29;147034.78;1781572;80;21423;-64
2022/03/20 04:15:39;;;;;;;10.68;3.98;;;;;;;-2.58;54.50;147033.53;1778210;79;21002;-64
2022/03/20 04:18:08;;;;;;;10.90;4.45;;;;;;;-2.57;54.58;147034.78;1774954;80;21029;-63
2022/03/20 04:20:37;;;;;;;9.40;4.75;;;;;;;-2.59;54.52;147030.95;1777287;80;21207;-64
2022/03/20 04:25:50;;;;;;;7.90;3.67;;;;;;;-2.63;54.35;147021.95;1780856;79;21035;-65
2022/03/20 04:28:19;;;;;;;10.00;4.33;;;;;;;-2.65;54.45;147016.81;1780311;80;21109;-64
2022/03/20 04:30:48;;;;;;;9.50;4.35;;;;;;;-2.64;54.37;147019.38;1773425;80;21106;-65
2022/03/20 04:33:15;;;;;;;11.73;4.45;;;;;;;-2.64;54.27;147018.13;1778286;79;21057;-64
2022/03/20 04:35:44;;;;;;;9.13;4.55;;;;;;;-2.63;54.27;147021.95;1775325;80;20932;-64
2022/03/20 04:38:11;;;;;;;8.18;4.20;;;;;;;-2.61;54.26;147025.83;1777051;80;21268;-65
2022/03/20 04:40:39;;;;;;;10.13;4.67;;;;;;;-2.61;54.25;147027.09;1779420;79;20936;-65
2022/03/20 04:43:07;;;;;;;11.38;4.20;;;;;;;-2.59;54.28;147030.95;1773334;80;21031;-66
2022/03/20 04:45:34;;;;;;;11.97;4.50;;;;;;;-2.59;54.31;147032.22;1778728;80;21640;-58
2022/03/20 04:59:08;;;;;;;10.98;4.25;;;;;;;-2.46;54.27;147063.06;1774477;80;21255;-58
2022/03/20 05:01:37;;;;;;;9.88;4.83;;;;;;;-2.45;54.37;147065.63;1773203;80;21051;-58
2022/03/20 05:04:04;;;;;;;14.78;4.72;;;;;;;-2.42;54.33;147073.31;1772263;80;20992;-57
2022/03/20 05:06:32;;;;;;;9.93;4.70;;;;;;;-2.39;54.26;147081.03;1768668;80;20935;-58
2022/03/20 05:14:33;;;;;;;9.90;4.67;;;;;;;-2.27;53.63;147109.31;1777172;80;21342;-64
2022/03/20 05:17:02;;;;;;;10.82;4.47;;;;;;;-2.22;53.42;147122.14;1776940;80;21101;-57
2022/03/20 05:19:29;;;;;;;14.80;5.12;;;;;;;-2.19;53.21;147131.16;1783986;78;21452;-57
2022/03/20 05:21:57;;;;;;;8.63;4.33;;;;;;;-2.11;52.83;147149.13;1778530;80;21078;-58
2022/03/20 05:24:25;;;;;;;7.87;4.20;;;;;;;-2.05;52.57;147165.83;1776348;80;21526;-58
2022/03/20 05:26:52;;;;;;;11.00;4.78;;;;;;;-1.99;52.37;147178.66;1781461;80;20932;-58
2022/03/20 05:29:19;;;;;;;7.65;4.17;;;;;;;-1.93;52.10;147194.06;1778971;80;21452;-57
2022/03/20 05:31:46;;;;;;;10.35;4.00;;;;;;;-1.86;51.75;147212.09;1743198;80;21003;-57
2022/03/20 05:34:15;;;;;;;9.63;4.50;;;;;;;-1.80;51.43;147227.50;1783224;79;21023;-58
2022/03/20 05:36:43;;;;;;;10.08;5.40;;;;;;;-1.70;51.42;147250.61;1778008;79;21231;-57
2022/03/20 05:39:10;;;;;;;13.22;5.42;;;;;;;-1.61;51.33;147275.03;1777685;80;21077;-57
2022/03/20 05:41:48;;;;;;;11.75;5.12;;;;;;;-1.46;51.20;147312.30;1781145;79;21058;-58
2022/03/20 05:44:20;;;;;;;16.85;4.75;;;;;;;-1.31;51.00;147348.31;1779165;79;21470;-58
2022/03/20 05:46:52;;;;;;;13.70;4.92;;;;;;;-1.18;50.79;147381.75;1771897;80;21055;-59
2022/03/20 05:49:22;;;;;;;11.93;5.03;;;;;;;-1.08;50.39;147404.88;1780180;79;21280;-58
2022/03/20 05:51:49;;;;;;;11.93;5.17;;;;;;;-1.00;50.27;147425.44;1779018;80;21077;-58
2022/03/20 05:54:17;;;;;;;10.68;4.90;;;;;;;-0.97;50.12;147433.19;1777379;80;21482;-56
2022/03/20 05:59:32;;;;;;;13.98;5.25;;;;;;;-0.90;49.98;147451.17;1776635;79;21469;-56
2022/03/20 06:01:59;;;;;;;13.13;5.10;;;;;;;-0.87;49.97;147458.88;1771055;80;21623;-57
2022/03/20 06:04:27;;;;;;;13.00;5.58;;;;;;;-0.83;50.17;147467.91;1778253;80;21602;-58
2022/03/20 06:06:54;;;;;;;14.73;5.72;;;;;;;-0.76;50.22;147485.89;1777471;80;21039;-58
2022/03/20 06:09:22;;;;;;;15.25;5.75;;;;;;;-0.70;50.34;147500.06;1777813;80;21049;-58
2022/03/20 06:11:49;;;;;;;14.53;5.20;;;;;;;-0.55;50.43;147536.03;1774098;80;21037;-58
2022/03/20 06:14:21;;;;;;;12.33;4.85;;;;;;;-0.41;49.88;147570.81;1778580;79;21401;-58
2022/03/20 06:16:48;;;;;;;12.65;5.58;;;;;;;-0.31;49.37;147596.53;1778366;79;21434;-64
2022/03/20 06:19:16;;;;;;;12.33;5.47;;;;;;;-0.16;49.04;147633.83;1778744;80;21082;-64
2022/03/20 06:21:44;;;;;;;10.40;5.33;;;;;;;-0.04;48.22;147664.73;1772537;80;21062;-57
2022/03/20 06:24:12;;;;;;;12.68;5.70;;;;;;;0.05;47.90;147685.31;1768630;79;21078;-63
2022/03/20 06:26:39;;;;;;;15.78;5.92;;;;;;;0.13;47.29;147705.94;1777919;79;21206;-64
2022/03/20 06:29:09;;;;;;;15.32;5.78;;;;;;;0.19;46.58;147721.38;1778942;80;21352;-64
2022/03/20 06:31:36;;;;;;;13.30;6.28;;;;;;;0.25;46.61;147735.53;1778849;79;21042;-66
2022/03/20 06:34:04;;;;;;;13.98;6.10;;;;;;;0.32;46.24;147753.55;1778810;80;20970;-65
2022/03/20 06:36:33;;;;;;;12.40;5.50;;;;;;;0.39;45.99;147770.28;1778326;80;20993;-64
2022/03/20 06:39:00;;;;;;;13.85;6.22;;;;;;;0.47;45.42;147790.87;1777917;79;22788;-64
2022/03/20 06:41:28;;;;;;;11.12;5.22;;;;;;;0.54;45.43;147808.88;1767711;79;21871;-64
2022/03/20 06:43:55;;;;;;;17.90;6.12;;;;;;;0.65;45.12;147834.66;1778051;79;21050;-64
2022/03/20 06:46:22;;;;;;;18.35;10.85;;;;;;;0.75;44.97;147860.39;1779252;80;21038;-64
2022/03/20 06:48:50;;;;;;;15.93;9.00;;;;;;;0.85;44.74;147886.17;1778765;79;21042;-64
2022/03/20 06:51:17;;;;;;;15.63;6.37;;;;;;;0.95;44.38;147910.64;1779362;80;21113;-64
2022/03/20 06:53:45;;;;;;;12.37;5.22;;;;;;;1.06;44.21;147936.37;1779948;80;21465;-65
2022/03/20 06:56:13;;;;;;;14.85;5.67;;;;;;;1.17;43.34;147963.44;1780005;80;21116;-65
2022/03/20 06:58:41;;;;;;;13.43;5.60;;;;;;;1.29;43.59;147994.38;1776495;80;20979;-57
2022/03/20 07:01:09;;;;;;;12.78;5.70;;;;;;;1.40;43.33;148022.69;1775555;80;21492;-64
2022/03/20 07:03:39;;;;;;;14.47;5.37;;;;;;;1.49;43.02;148044.61;1785375;79;21023;-65
2022/03/20 07:06:06;;;;;;;15.63;6.40;;;;;;;1.61;42.75;148074.23;1773388;80;21534;-64
2022/03/20 07:08:33;;;;;;;9.88;5.00;;;;;;;1.73;42.84;148102.63;1766502;80;21055;-63
2022/03/20 07:11:02;;;;;;;13.48;4.80;;;;;;;1.88;42.55;148141.30;1781129;79;21427;-64
2022/03/20 07:13:49;;;;;;;19.32;6.37;;;;;;;2.01;41.67;148173.53;1775887;80;20983;-64
2022/03/20 07:16:16;;;;;;;21.48;6.15;;;;;;;2.13;42.09;148203.17;1775935;79;21121;-58
2022/03/20 07:18:45;;;;;;;9.50;5.37;;;;;;;2.36;41.83;148259.91;1771489;79;21374;-58
2022/03/20 07:21:18;;;;;;;11.73;5.40;;;;;;;2.56;41.14;148311.48;1784905;78;21071;-58
2022/03/20 07:23:45;;;;;;;15.83;5.55;;;;;;;2.71;40.43;148348.87;1778163;80;21406;-61
2022/03/20 07:31:46;;;;;;;9.90;5.15;;;;;;;3.27;39.25;148488.19;1785575;80;21054;-58
2022/03/20 07:34:14;;;;;;;13.35;4.90;;;;;;;3.42;40.30;148525.61;1778868;79;21107;-58
2022/03/20 07:36:42;;;;;;;11.35;4.90;;;;;;;3.57;38.57;148563.08;1779847;79;21477;-58
2022/03/20 07:39:10;;;;;;;9.55;4.55;;;;;;;3.62;37.41;148574.66;1780814;79;21503;-59
2022/03/20 07:41:38;;;;;;;9.63;4.20;;;;;;;3.68;36.62;148590.19;1780373;80;21260;-59
2022/03/20 07:44:07;;;;;;;10.88;5.30;;;;;;;3.68;36.62;148590.19;1784161;79;21003;-59
2022/03/20 07:46:36;;;;;;;12.07;4.78;;;;;;;3.68;36.55;148590.19;1777332;79;21060;-59
2022/03/20 07:49:03;;;;;;;10.10;4.28;;;;;;;3.74;36.66;148604.34;1776501;80;21015;-63
2022/03/20 07:51:32;;;;;;;9.40;3.90;;;;;;;3.84;36.19;148628.88;1783971;80;21062;-63
2022/03/20 07:54:00;;;;;;;9.18;4.28;;;;;;;3.84;36.19;148628.88;1775523;79;21131;-63
2022/03/20 07:56:28;;;;;;;10.23;4.30;;;;;;;3.91;37.71;148645.67;1777150;80;21356;-65
2022/03/20 07:58:56;;;;;;;6.40;4.00;;;;;;;4.00;39.72;148670.20;1777563;79;21014;-58
2022/03/20 08:01:24;;;;;;;12.85;4.50;;;;;;;4.03;38.05;148676.69;1777868;79;21039;-59
2022/03/20 08:03:52;;;;;;;9.20;4.40;;;;;;;4.03;38.05;148676.69;1780008;80;21010;-62
2022/03/20 08:06:21;;;;;;;10.18;4.75;;;;;;;4.06;36.87;148683.11;1775393;79;22239;-63
2022/03/20 08:08:48;;;;;;;8.95;4.85;;;;;;;4.00;35.67;148670.20;1773070;80;21031;-64
2022/03/20 08:11:17;;;;;;;10.40;4.25;;;;;;;4.00;35.67;148670.20;1775490;80;21481;-66
2022/03/20 08:13:44;;;;;;;10.75;4.25;;;;;;;4.06;36.24;148684.42;1779069;80;21031;-64
2022/03/20 08:16:15;;;;;;;7.85;4.15;;;;;;;4.17;36.04;148711.53;1775612;80;22256;-64
2022/03/20 08:18:42;;;;;;;7.78;4.15;;;;;;;4.29;35.64;148741.25;1781931;80;21363;-59
2022/03/20 08:21:11;;;;;;;9.33;4.50;;;;;;;4.29;35.15;148741.25;1780050;79;21106;-61
2022/03/20 08:23:39;;;;;;;8.40;4.55;;;;;;;4.32;35.87;148747.72;1772326;80;21042;-64
2022/03/20 08:26:08;;;;;;;8.30;4.15;;;;;;;4.40;35.94;148768.38;1775828;80;21046;-64
2022/03/20 08:28:37;;;;;;;10.23;4.50;;;;;;;4.50;35.99;148794.17;1781245;79;21090;-59
2022/03/20 08:31:06;;;;;;;10.50;5.08;;;;;;;4.52;34.97;148799.34;1780631;79;21630;-59
2022/03/20 08:33:34;;;;;;;8.65;4.42;;;;;;;4.54;35.80;148804.55;1775947;80;21105;-63
2022/03/20 08:36:02;;;;;;;12.73;5.53;;;;;;;4.63;37.08;148825.19;1777860;80;21014;-63
2022/03/20 08:38:30;;;;;;;10.08;4.80;;;;;;;4.66;38.67;148832.94;1753358;80;21054;-66
2022/03/20 08:40:58;;;;;;;13.25;4.80;;;;;;;4.65;38.69;148830.36;1778831;79;21050;-63
2022/03/20 08:43:25;;;;;;;9.83;4.87;;;;;;;4.68;36.34;148838.11;1777681;80;22115;-63
2022/03/20 08:45:55;;;;;;;12.25;4.85;;;;;;;4.72;38.34;148849.75;1781847;79;21043;-63
2022/03/20 08:48:22;;;;;;;8.60;4.67;;;;;;;4.79;39.98;148865.23;1775500;80;21690;-63
2022/03/20 08:50:50;;;;;;;13.10;4.85;;;;;;;4.88;40.15;148888.53;1780882;80;21019;-63
2022/03/20 08:53:25;;;;;;;8.78;4.50;;;;;;;4.91;40.52;148894.95;1777524;79;20967;-64
2022/03/20 08:55:52;;;;;;;12.23;4.53;;;;;;;4.94;40.92;148902.69;1799962;78;20979;-64
2022/03/20 08:58:19;;;;;;;10.15;4.80;;;;;;;4.96;40.28;148907.86;1791367;79;21606;-62
2022/03/20 09:00:48;;;;;;;10.32;5.05;;;;;;;4.91;39.57;148896.27;1797726;78;21030;-63
2022/03/20 09:03:17;;;;;;;8.30;4.15;;;;;;;4.87;40.32;148887.20;1792076;79;20977;-63
2022/03/20 09:05:44;;;;;;;9.15;4.35;;;;;;;4.85;39.78;148882.05;1791845;79;21443;-64
2022/03/20 09:08:12;;;;;;;8.63;4.67;;;;;;;4.76;39.80;148858.81;1799348;78;21081;-64
2022/03/20 09:10:41;;;;;;;16.85;5.30;;;;;;;4.71;40.94;148847.17;1795352;79;21433;-63
2022/03/20 09:13:10;;;;;;;8.38;4.37;;;;;;;4.72;40.96;148848.44;1796173;78;21033;-63
2022/03/20 09:15:37;;;;;;;9.70;4.78;;;;;;;4.66;40.20;148832.94;1798974;78;20982;-60
2022/03/20 09:20:50;;;;;;;9.08;4.25;;;;;;;4.52;40.90;148798.08;1783864;79;21314;-59
2022/03/20 09:23:18;;;;;;;11.60;4.60;;;;;;;4.51;40.49;148796.75;1795650;79;21273;-59
2022/03/20 09:25:46;;;;;;;7.80;4.58;;;;;;;4.51;41.19;148796.75;1802975;78;20909;-58
2022/03/20 09:28:14;;;;;;;9.93;4.70;;;;;;;4.53;39.52;148801.97;1803752;79;21096;-58
2022/03/20 09:30:42;;;;;;;9.30;4.47;;;;;;;4.54;38.96;148804.55;1804732;78;20952;-58
2022/03/20 09:33:09;;;;;;;9.48;3.87;;;;;;;4.49;38.67;148791.59;1804177;78;21579;-62
2022/03/20 09:35:36;;;;;;;8.85;3.87;;;;;;;4.46;38.36;148783.84;1804640;79;21514;-62
2022/03/20 09:38:07;;;;;;;7.33;3.87;;;;;;;4.42;37.57;148773.53;1803834;78;21614;-63
2022/03/20 09:40:37;;;;;;;8.33;4.17;;;;;;;4.37;38.23;148761.89;1804150;78;21035;-64
2022/03/20 09:43:05;;;;;;;7.92;3.42;;;;;;;4.34;38.68;148752.87;1804718;79;21038;-64
2022/03/20 09:45:35;;;;;;;8.85;3.80;;;;;;;4.27;39.38;148737.34;1804499;79;20951;-64
2022/03/20 09:48:04;;;;;;;10.72;4.10;;;;;;;4.16;40.08;148708.97;1804946;78;21453;-63
2022/03/20 09:50:32;;;;;;;8.03;3.50;;;;;;;4.05;40.47;148680.53;1804706;78;21030;-62
2022/03/20 09:53:01;;;;;;;10.48;4.20;;;;;;;3.98;40.56;148665.05;1802018;78;21014;-64
2022/03/20 09:55:28;;;;;;;8.28;4.15;;;;;;;3.91;41.19;148645.67;1795750;79;21051;-59
2022/03/20 09:58:00;;;;;;;7.67;3.67;;;;;;;3.84;41.53;148628.88;1795668;78;22162;-59
2022/03/20 10:00:26;;;;;;;6.50;3.60;;;;;;;3.81;42.30;148621.14;1795582;79;21027;-59
2022/03/20 10:02:55;;;;;;;7.55;3.60;;;;;;;3.80;42.66;148619.88;1796067;79;21524;-59
2022/03/20 10:05:26;;;;;;;9.48;3.80;;;;;;;3.86;42.52;148635.36;1795480;78;20986;-58
2022/03/20 10:07:53;;;;;;;7.03;3.72;;;;;;;3.93;42.74;148652.16;1796038;79;20956;-59
2022/03/20 10:10:23;;;;;;;7.50;3.55;;;;;;;4.01;43.28;148671.52;1795528;79;21486;-64
2022/03/20 10:12:53;;;;;;;8.53;3.55;;;;;;;4.06;45.06;148683.11;1796013;78;20952;-64
2022/03/20 10:15:36;;;;;;;6.60;3.37;;;;;;;4.06;45.06;148683.11;1795379;79;21088;-60
2022/03/20 10:18:15;;;;;;;5.78;3.45;;;;;;;4.18;45.46;148712.81;1796050;79;21058;-59
2022/03/20 10:20:46;;;;;;;5.85;3.20;;;;;;;4.24;44.13;148729.61;1796156;79;21059;-60
2022/03/20 10:23:42;;;;;;;5.97;3.00;;;;;;;4.33;43.06;148750.30;1795924;79;21376;-58
2022/03/20 10:26:21;;;;;;;6.28;3.20;;;;;;;4.32;42.94;148748.98;1795100;78;20970;-60
2022/03/20 10:28:48;;;;;;;7.20;3.92;;;;;;;4.34;42.57;148752.87;1794540;78;21448;-59
2022/03/20 10:31:23;;;;;;;7.72;3.77;;;;;;;4.42;42.50;148774.84;1795264;79;21079;-64
2022/03/20 10:34:02;;;;;;;9.00;4.50;;;;;;;4.48;43.04;148789.02;1795861;78;20943;-63
2022/03/20 10:36:29;;;;;;;7.67;3.65;;;;;;;4.53;43.69;148801.97;1795929;79;21485;-64
2022/03/20 10:38:57;;;;;;;7.83;3.70;;;;;;;4.66;43.99;148832.94;1796153;79;20927;-63
2022/03/20 10:41:39;;;;;;;7.45;3.85;;;;;;;4.75;44.22;148854.91;1795668;78;21002;-64
2022/03/20 10:44:28;;;;;;;6.83;3.45;;;;;;;4.83;43.90;148875.56;1795565;79;21500;-59
2022/03/20 10:46:58;;;;;;;8.15;3.25;;;;;;;4.84;44.35;148879.47;1795376;79;21531;-64
2022/03/20 10:49:27;;;;;;;7.58;3.50;;;;;;;4.76;42.89;148857.50;1795892;79;21214;-63
2022/03/20 10:52:09;;;;;;;7.60;3.72;;;;;;;4.73;42.96;148851.02;1747026;79;21475;-59
2022/03/20 10:54:43;;;;;;;7.55;3.60;;;;;;;4.73;42.27;148851.02;1786965;79;21585;-59
2022/03/20 10:57:12;;;;;;;6.00;3.33;;;;;;;4.72;42.10;148848.44;1784330;78;21047;-60
2022/03/20 10:59:40;;;;;;;5.15;3.20;;;;;;;4.66;42.05;148832.94;1784489;79;20971;-59
2022/03/20 11:02:22;;;;;;;9.18;4.15;;;;;;;4.64;42.10;148827.78;1784134;79;21864;-59
2022/03/20 11:04:50;;;;;;;8.68;3.55;;;;;;;4.63;42.20;148825.19;1784262;79;20952;-58
2022/03/20 11:07:23;;;;;;;9.08;3.30;;;;;;;4.66;41.69;148832.94;1776797;79;21061;-58
2022/03/20 11:09:55;;;;;;;10.53;3.62;;;;;;;4.66;41.69;148832.94;1776822;79;20943;-59
2022/03/20 11:12:27;;;;;;;7.20;3.30;;;;;;;4.64;41.56;148827.78;1775034;80;21030;-59
2022/03/20 11:14:58;;;;;;;4.75;2.77;;;;;;;4.58;41.81;148814.88;1781559;79;21160;-63
2022/03/20 11:17:39;;;;;;;5.72;3.37;;;;;;;4.55;41.29;148807.13;1773373;79;21096;-65
2022/03/20 11:20:07;;;;;;;5.65;3.35;;;;;;;4.52;40.81;148799.34;1776203;80;20970;-64
2022/03/20 11:22:39;;;;;;;6.83;3.08;;;;;;;4.50;40.96;148794.17;1780555;80;21074;-64
2022/03/20 11:25:08;;;;;;;7.35;3.50;;;;;;;4.49;41.70;148791.59;1777855;80;21278;-63
2022/03/20 11:27:36;;;;;;;7.67;3.17;;;;;;;4.51;42.52;148795.50;1777152;80;21773;-65
2022/03/20 11:30:06;;;;;;;6.42;2.90;;;;;;;4.57;42.74;148812.28;1773331;80;21610;-64
2022/03/20 11:32:34;;;;;;;6.80;3.00;;;;;;;4.66;42.92;148834.25;1774397;80;21078;-64
2022/03/20 11:35:04;;;;;;;9.18;3.58;;;;;;;4.71;42.81;148845.84;1776361;79;22179;-66
2022/03/20 11:37:47;;;;;;;11.38;3.10;;;;;;;4.71;41.93;148845.84;1779882;79;21081;-63
2022/03/20 11:40:22;;;;;;;6.58;3.12;;;;;;;4.71;41.85;148845.84;1771419;80;21622;-65
2022/03/20 11:42:50;;;;;;;15.58;3.52;;;;;;;4.70;41.97;148843.27;1779199;80;21061;-63
2022/03/20 11:45:24;;;;;;;9.10;3.65;;;;;;;4.72;41.41;148848.44;1764157;80;20955;-63
2022/03/20 11:47:56;;;;;;;6.15;3.17;;;;;;;4.69;40.92;148840.69;1775572;80;21141;-64
2022/03/20 11:50:27;;;;;;;8.00;3.62;;;;;;;4.67;40.87;148835.53;1766866;79;21018;-64
2022/03/20 11:53:03;;;;;;;6.42;3.10;;;;;;;4.66;40.98;148834.25;1777979;80;21278;-64
2022/03/20 11:55:34;;;;;;;5.22;2.83;;;;;;;4.65;40.93;148831.67;1783083;79;21686;-63
2022/03/20 11:58:12;;;;;;;5.22;2.70;;;;;;;4.62;41.17;148822.63;1785628;78;21070;-63
2022/03/20 12:00:43;;;;;;;7.72;2.80;;;;;;;4.56;41.85;148809.72;1765173;80;20968;-63
2022/03/20 12:03:22;;;;;;;7.03;3.25;;;;;;;4.51;42.43;148796.75;1787385;78;21046;-64
2022/03/20 12:06:36;;;;;;;4.47;2.72;;;;;;;4.48;41.36;148787.75;1782328;80;21129;-62
2022/03/20 12:09:20;;;;;;;4.85;2.40;;;;;;;4.48;40.66;148789.02;1776468;78;20957;-64